Time;durP1;ratioP1;P1;durP2;ratioP2;P2;SDS_P1;SDS_P2;PMS_P1;PMS_P2;Temp;Humidity;BMP_temperature;BMP_pressure;BME280_temperature;BME280_humidity;BME280_pressure;Samples;Min_cycle;Max_cycle;Signal;HPM_P1;HPM_P2
2022/04/06 00:02:15;;;;;;;88.65;8.85;;;;;;;10.32;100.00;97156.91;4995074;28;20631;-54
2022/04/06 00:04:40;;;;;;;73.18;7.63;;;;;;;10.96;100.00;97155.16;5006642;28;20021;-56
2022/04/06 00:07:06;;;;;;;83.53;8.40;;;;;;;10.49;100.00;97145.56;5002497;28;20038;-55
2022/04/06 00:09:31;;;;;;;92.38;8.80;;;;;;;10.26;100.00;97153.78;5003144;28;20597;-55
2022/04/06 00:11:57;;;;;;;72.38;7.85;;;;;;;10.50;100.00;97143.81;5003677;28;20033;-55
2022/04/06 00:14:22;;;;;;;78.35;7.28;;;;;;;11.21;100.00;97145.09;5003707;28;20030;-55
2022/04/06 00:16:48;;;;;;;76.28;7.55;;;;;;;10.48;100.00;97141.28;4999897;28;20464;-55
2022/04/06 00:19:14;;;;;;;70.65;6.28;;;;;;;11.20;100.00;97141.66;5001555;28;20108;-55
2022/04/06 00:21:39;;;;;;;78.35;6.93;;;;;;;10.93;100.00;97138.84;5001972;28;20042;-55
2022/04/06 00:24:05;;;;;;;72.72;7.75;;;;;;;10.23;100.00;97136.53;5004798;28;20041;-56
2022/04/06 00:26:30;;;;;;;75.03;7.07;;;;;;;11.11;100.00;97139.56;4997913;28;20045;-56
2022/04/06 00:28:55;;;;;;;68.78;7.00;;;;;;;10.79;100.00;97132.63;5002135;28;20034;-54
2022/04/06 00:31:21;;;;;;;80.25;6.63;;;;;;;11.57;100.00;97131.69;4997242;28;20113;-54
2022/04/06 00:33:47;;;;;;;75.00;7.50;;;;;;;10.58;100.00;97141.63;5001339;28;20022;-54
2022/04/06 00:36:12;;;;;;;74.95;7.72;;;;;;;10.43;100.00;97135.47;5001683;28;20064;-55
2022/04/06 00:38:38;;;;;;;81.20;7.35;;;;;;;10.96;100.00;97126.47;5002418;28;20113;-54
2022/04/06 00:41:03;;;;;;;77.85;7.25;;;;;;;10.82;100.00;97129.00;5000910;28;20065;-54
2022/04/06 00:43:28;;;;;;;61.35;5.95;;;;;;;11.16;100.00;97127.09;4999968;28;20064;-54
2022/04/06 00:45:54;;;;;;;89.28;8.20;;;;;;;10.76;100.00;97124.97;5003938;28;20607;-56
2022/04/06 00:48:19;;;;;;;73.40;6.90;;;;;;;10.59;100.00;97125.91;5004631;28;20017;-54
2022/04/06 00:50:45;;;;;;;77.53;7.72;;;;;;;10.14;100.00;97130.03;5001752;28;20052;-55
2022/04/06 00:53:13;;;;;;;66.50;6.60;;;;;;;11.15;100.00;97125.41;5000081;28;20029;-54
2022/04/06 00:55:39;;;;;;;70.30;7.25;;;;;;;10.81;100.00;97129.94;4999510;28;20545;-53
2022/04/06 00:58:06;;;;;;;81.60;7.78;;;;;;;11.19;100.00;97127.78;5008879;28;20103;-54
2022/04/06 01:00:31;;;;;;;76.22;6.93;;;;;;;11.04;100.00;97127.78;4999884;28;20512;-55
2022/04/06 01:02:57;;;;;;;84.30;7.43;;;;;;;11.48;100.00;97120.00;5001964;28;20029;-55
2022/04/06 01:05:25;;;;;;;67.13;6.68;;;;;;;11.03;100.00;97126.09;5000126;28;20136;-57
2022/04/06 01:07:52;;;;;;;64.55;6.18;;;;;;;10.99;100.00;97135.88;4998724;28;20049;-56
2022/04/06 01:10:18;;;;;;;77.93;6.53;;;;;;;11.25;100.00;97123.09;5001261;28;20044;-54
2022/04/06 01:12:47;;;;;;;73.78;6.57;;;;;;;11.28;100.00;97121.16;5004912;28;20029;-54
2022/04/06 01:15:14;;;;;;;77.57;7.45;;;;;;;10.61;100.00;97131.88;5004296;28;20021;-54
2022/04/06 01:17:40;;;;;;;78.43;7.32;;;;;;;10.83;100.00;97120.25;4998860;28;20664;-55
2022/04/06 01:20:08;;;;;;;76.63;7.43;;;;;;;10.90;100.00;97119.00;5001141;28;20029;-54
2022/04/06 01:22:34;;;;;;;70.35;6.95;;;;;;;10.60;100.00;97114.56;5002549;28;20056;-54
2022/04/06 01:25:00;;;;;;;96.57;7.70;;;;;;;11.84;100.00;97123.16;5002177;28;20028;-54
2022/04/06 01:27:27;;;;;;;76.20;7.55;;;;;;;10.56;100.00;97120.84;5003422;28;20066;-53
2022/04/06 01:29:54;;;;;;;78.00;6.80;;;;;;;11.00;100.00;97122.72;5003182;28;20108;-55
2022/04/06 01:32:24;;;;;;;87.28;7.60;;;;;;;10.86;100.00;97125.28;5002484;28;20125;-53
2022/04/06 01:34:51;;;;;;;76.00;7.05;;;;;;;11.22;100.00;97121.53;5000767;28;20022;-56
2022/04/06 01:37:17;;;;;;;83.15;7.57;;;;;;;11.04;100.00;97117.34;5004865;28;20162;-54
2022/04/06 01:39:45;;;;;;;77.43;6.47;;;;;;;10.96;100.00;97136.88;5006571;28;20031;-54
2022/04/06 01:42:12;;;;;;;71.68;6.95;;;;;;;10.16;100.00;97127.34;5002933;28;20513;-54
2022/04/06 01:44:38;;;;;;;75.68;7.30;;;;;;;10.38;100.00;97124.47;5007416;28;20029;-54
2022/04/06 01:47:06;;;;;;;78.15;7.30;;;;;;;10.68;100.00;97128.91;5007639;28;20096;-55
2022/04/06 01:52:16;;;;;;;83.32;7.80;;;;;;;10.17;100.00;97135.09;5002396;28;20049;-55
2022/04/06 01:54:47;;;;;;;89.80;7.07;;;;;;;11.12;100.00;97128.19;5004688;28;20128;-53
2022/04/06 01:57:14;;;;;;;65.97;6.78;;;;;;;10.22;100.00;97133.09;5006308;28;20042;-56
2022/04/06 01:59:39;;;;;;;82.85;7.22;;;;;;;10.60;100.00;97130.22;5007525;28;20018;-55
2022/04/06 02:02:06;;;;;;;78.85;7.40;;;;;;;10.15;100.00;97134.31;5004494;28;20496;-55
2022/04/06 02:04:32;;;;;;;89.38;8.43;;;;;;;10.03;100.00;97140.19;5004547;28;20560;-54
2022/04/06 02:06:58;;;;;;;77.70;7.72;;;;;;;9.88;100.00;97135.78;5005637;28;20037;-53
2022/04/06 02:09:23;;;;;;;80.18;6.78;;;;;;;10.63;100.00;97141.38;5008549;28;20049;-55
2022/04/06 02:11:48;;;;;;;77.93;7.40;;;;;;;10.10;100.00;97135.50;5009798;28;20102;-55
2022/04/06 02:14:14;;;;;;;77.28;7.78;;;;;;;10.12;100.00;97131.88;5004587;28;20025;-54
2022/04/06 02:16:40;;;;;;;73.55;7.35;;;;;;;10.21;100.00;97127.94;5003163;28;20064;-56
2022/04/06 02:19:05;;;;;;;84.32;8.88;;;;;;;10.04;100.00;97131.44;5004560;28;20073;-54
2022/04/06 02:21:32;;;;;;;77.50;8.73;;;;;;;10.00;100.00;97137.75;5006683;28;20038;-56
2022/04/06 02:23:57;;;;;;;99.25;9.20;;;;;;;9.81;100.00;97132.63;5009325;28;20034;-55
2022/04/06 02:26:23;;;;;;;75.18;8.10;;;;;;;9.74;100.00;97129.53;5004059;28;20442;-56
2022/04/06 02:28:48;;;;;;;87.80;8.50;;;;;;;9.71;100.00;97132.28;5007058;28;20037;-55
2022/04/06 02:31:14;;;;;;;58.47;7.15;;;;;;;9.87;100.00;97123.66;5003704;28;20447;-55
2022/04/06 02:33:39;;;;;;;70.05;7.93;;;;;;;9.83;100.00;97125.59;5002776;28;20034;-56
2022/04/06 02:36:05;;;;;;;83.72;8.30;;;;;;;9.83;100.00;97118.63;5001461;28;20077;-56
2022/04/06 02:38:30;;;;;;;77.18;8.20;;;;;;;9.86;100.00;97122.00;5005190;28;20321;-55
2022/04/06 02:40:56;;;;;;;96.43;9.55;;;;;;;9.74;100.00;97134.75;5007865;28;20030;-55
2022/04/06 02:43:21;;;;;;;65.75;8.07;;;;;;;9.85;100.00;97121.13;5006100;28;20026;-55
2022/04/06 02:45:47;;;;;;;80.60;7.82;;;;;;;9.98;100.00;97114.38;5005446;28;20119;-54
2022/04/06 02:48:14;;;;;;;70.72;7.43;;;;;;;9.99;100.00;97123.88;5004011;28;20221;-55
2022/04/06 02:50:39;;;;;;;65.97;7.80;;;;;;;9.93;100.00;97119.00;5005101;28;20176;-54
2022/04/06 02:53:04;;;;;;;67.82;7.97;;;;;;;10.09;100.00;97118.16;5005144;28;20113;-55
2022/04/06 02:55:30;;;;;;;77.22;8.70;;;;;;;9.38;100.00;97127.03;5001833;28;20120;-55
2022/04/06 02:57:55;;;;;;;72.60;7.38;;;;;;;10.13;100.00;97112.72;5004337;28;20079;-56
2022/04/06 03:00:20;;;;;;;84.25;7.07;;;;;;;10.23;100.00;97111.28;5005303;28;20018;-55
2022/04/06 03:02:46;;;;;;;63.10;6.70;;;;;;;10.34;100.00;97102.09;5005146;28;20927;-56
2022/04/06 03:05:12;;;;;;;88.80;8.77;;;;;;;10.11;100.00;97106.75;5005756;28;20443;-55
2022/04/06 03:07:40;;;;;;;62.08;7.43;;;;;;;9.91;100.00;97104.38;5007747;28;20049;-55
2022/04/06 03:10:06;;;;;;;77.40;8.95;;;;;;;9.53;100.00;97112.41;5003572;28;20038;-55
2022/04/06 03:12:32;;;;;;;85.10;8.05;;;;;;;10.14;100.00;97113.56;5002834;28;20050;-55
2022/04/06 03:14:57;;;;;;;94.38;9.45;;;;;;;9.87;100.00;97108.03;5003137;28;20068;-55
2022/04/06 03:17:23;;;;;;;92.53;8.10;;;;;;;10.10;100.00;97110.28;4998304;28;20038;-54
2022/04/06 03:19:48;;;;;;;84.75;9.48;;;;;;;9.68;100.00;97098.56;5003507;28;20109;-54
2022/04/06 03:22:17;;;;;;;87.30;10.20;;;;;;;9.54;100.00;97104.50;5005382;28;20047;-54
2022/04/06 03:24:43;;;;;;;104.50;10.95;;;;;;;9.48;100.00;97101.38;5007178;28;20018;-54
2022/04/06 03:27:09;;;;;;;85.47;10.13;;;;;;;9.52;100.00;97095.06;5002961;28;20118;-54
2022/04/06 03:29:34;;;;;;;93.97;10.05;;;;;;;9.27;100.00;97098.94;5002831;28;20018;-54
2022/04/06 03:32:00;;;;;;;113.70;11.63;;;;;;;9.39;100.00;97095.72;5002762;28;20037;-53
2022/04/06 03:34:25;;;;;;;91.57;10.52;;;;;;;9.30;100.00;97093.59;4999515;28;20459;-54
2022/04/06 03:36:50;;;;;;;81.03;9.00;;;;;;;9.52;100.00;97097.69;5001234;28;20042;-53
2022/04/06 03:39:16;;;;;;;84.63;8.63;;;;;;;9.84;100.00;97085.63;5001326;28;20021;-53
2022/04/06 03:41:41;;;;;;;88.63;10.02;;;;;;;9.35;100.00;97086.38;5001193;28;20343;-54
2022/04/06 03:44:06;;;;;;;81.28;9.57;;;;;;;9.22;100.00;97085.31;5000990;28;20022;-53
2022/04/06 03:46:32;;;;;;;81.32;9.68;;;;;;;9.37;100.00;97084.53;5003153;28;20124;-54
2022/04/06 03:48:57;;;;;;;91.30;10.57;;;;;;;9.18;100.00;97086.38;5005991;28;20026;-53
2022/04/06 03:51:22;;;;;;;71.15;9.88;;;;;;;9.00;100.00;97085.53;5000996;28;20424;-55
2022/04/06 03:53:48;;;;;;;90.20;11.02;;;;;;;9.06;100.00;97091.28;5000489;28;20939;-53
2022/04/06 03:56:13;;;;;;;74.15;10.27;;;;;;;9.26;100.00;97086.84;5003289;28;20033;-53
2022/04/06 03:58:38;;;;;;;86.05;10.38;;;;;;;9.04;100.00;97082.72;5001620;28;20133;-54
2022/04/06 04:01:06;;;;;;;85.43;10.18;;;;;;;9.17;100.00;97084.69;4999273;28;20069;-53
2022/04/06 04:03:31;;;;;;;83.72;10.00;;;;;;;9.52;100.00;97092.47;5004503;28;20017;-53
2022/04/06 04:05:57;;;;;;;96.10;10.65;;;;;;;9.23;100.00;97087.00;5003606;28;20060;-53
2022/04/06 04:08:22;;;;;;;73.88;10.38;;;;;;;9.43;100.00;97076.44;5004996;28;20025;-52
2022/04/06 04:10:48;;;;;;;71.25;10.23;;;;;;;9.54;100.00;97064.59;5001913;28;20076;-55
2022/04/06 04:13:13;;;;;;;91.05;11.20;;;;;;;9.58;100.00;97066.16;5006278;28;20142;-57
2022/04/06 04:15:39;;;;;;;76.35;9.68;;;;;;;9.24;100.00;97073.06;5002577;28;20037;-54
2022/04/06 04:18:04;;;;;;;97.03;10.60;;;;;;;9.53;100.00;97068.16;5003380;28;20040;-53
2022/04/06 04:20:29;;;;;;;84.38;9.95;;;;;;;9.54;100.00;97062.00;5004701;28;20038;-53
2022/04/06 04:22:55;;;;;;;75.93;9.90;;;;;;;9.60;100.00;97059.09;5007212;28;20029;-53
2022/04/06 04:25:20;;;;;;;80.70;8.68;;;;;;;9.42;100.00;97069.53;5006123;28;20128;-54
2022/04/06 04:27:45;;;;;;;82.70;10.02;;;;;;;9.41;100.00;97065.25;5004531;28;20045;-54
2022/04/06 04:30:11;;;;;;;90.30;10.35;;;;;;;9.61;100.00;97066.84;5003141;28;20040;-54
2022/04/06 04:32:36;;;;;;;81.07;9.90;;;;;;;9.37;100.00;97063.72;5001757;28;20021;-54
2022/04/06 04:35:05;;;;;;;76.97;9.40;;;;;;;9.60;100.00;97064.31;5004923;28;20112;-53
2022/04/06 04:37:31;;;;;;;75.70;9.43;;;;;;;9.58;100.00;97071.34;5002272;28;20042;-53
2022/04/06 04:39:56;;;;;;;74.55;9.10;;;;;;;9.34;100.00;97074.28;5002723;28;20426;-54
2022/04/06 04:42:21;;;;;;;95.88;10.65;;;;;;;9.20;100.00;97080.19;5001086;28;20055;-53
2022/04/06 04:44:46;;;;;;;98.85;10.40;;;;;;;9.36;100.00;97075.06;5003190;28;20025;-53
2022/04/06 04:47:12;;;;;;;87.22;9.93;;;;;;;9.62;100.00;97072.88;5002320;28;20045;-52
2022/04/06 04:49:37;;;;;;;74.13;9.27;;;;;;;9.93;100.00;97060.84;4998586;28;20025;-54
2022/04/06 04:52:03;;;;;;;81.70;9.27;;;;;;;10.08;100.00;97062.63;5000233;28;20648;-54
2022/04/06 04:54:28;;;;;;;93.45;10.25;;;;;;;9.67;100.00;97060.47;5004104;28;20022;-54
2022/04/06 04:56:53;;;;;;;88.53;8.95;;;;;;;9.54;100.00;97064.59;5004810;28;20305;-55
2022/04/06 04:59:19;;;;;;;102.68;9.65;;;;;;;9.33;100.00;97062.19;5002129;28;20124;-54
2022/04/06 05:01:44;;;;;;;76.55;9.07;;;;;;;9.75;100.00;97066.09;5001237;28;20844;-54
2022/04/06 05:04:10;;;;;;;73.18;8.68;;;;;;;9.86;100.00;97051.69;5001083;28;20033;-54
2022/04/06 05:06:38;;;;;;;85.22;9.57;;;;;;;9.49;100.00;97053.59;5002158;28;20666;-52
2022/04/06 05:09:04;;;;;;;79.85;8.80;;;;;;;9.54;100.00;97057.66;5003185;28;20041;-55
2022/04/06 05:11:29;;;;;;;89.47;9.75;;;;;;;9.46;100.00;97054.59;5006224;28;20620;-54
2022/04/06 05:13:54;;;;;;;95.57;9.95;;;;;;;9.58;100.00;97061.78;5008259;28;20575;-54
2022/04/06 05:16:20;;;;;;;69.07;8.77;;;;;;;9.41;100.00;97065.25;5003162;28;20072;-55
2022/04/06 05:18:45;;;;;;;89.70;9.50;;;;;;;9.71;100.00;97050.72;5007358;28;20029;-53
2022/04/06 05:21:10;;;;;;;73.90;8.52;;;;;;;9.57;100.00;97056.66;5005257;28;20290;-56
2022/04/06 05:23:36;;;;;;;77.68;8.65;;;;;;;9.80;100.00;97061.50;5005365;28;20109;-54
2022/04/06 05:26:01;;;;;;;78.95;8.60;;;;;;;10.27;100.00;97057.25;5004134;28;20034;-54
2022/04/06 05:28:27;;;;;;;82.00;8.27;;;;;;;10.49;100.00;97056.09;5007435;28;20112;-54
2022/04/06 05:30:52;;;;;;;76.45;8.75;;;;;;;10.50;100.00;97047.38;5005627;28;20091;-54
2022/04/06 05:33:18;;;;;;;63.55;8.35;;;;;;;10.03;100.00;97051.59;5004817;28;20029;-54
2022/04/06 05:35:43;;;;;;;79.53;8.20;;;;;;;10.14;100.00;97051.84;5002055;28;20113;-55
2022/04/06 05:38:09;;;;;;;88.28;9.38;;;;;;;9.95;100.00;97053.78;5004133;28;20029;-54
2022/04/06 05:40:35;;;;;;;75.65;8.45;;;;;;;9.60;100.00;97048.69;5005684;28;20181;-54
2022/04/06 05:43:00;;;;;;;91.35;10.02;;;;;;;9.78;100.00;97047.72;5005186;28;20036;-55
2022/04/06 05:45:25;;;;;;;78.95;9.27;;;;;;;9.75;100.00;97047.88;5006652;28;20516;-54
2022/04/06 05:47:50;;;;;;;72.75;9.20;;;;;;;10.01;100.00;97050.84;5006015;28;20037;-54
2022/04/06 05:50:16;;;;;;;87.03;8.48;;;;;;;10.40;100.00;97041.78;5007615;28;20026;-55
2022/04/06 05:52:42;;;;;;;63.72;7.95;;;;;;;10.20;100.00;97043.72;5005736;28;20029;-55
2022/04/06 05:55:08;;;;;;;99.20;10.48;;;;;;;10.14;100.00;97053.63;5001559;28;20120;-54
2022/04/06 05:57:33;;;;;;;72.32;8.43;;;;;;;10.12;100.00;97061.53;5007408;28;20546;-54
2022/04/06 05:59:59;;;;;;;96.40;9.95;;;;;;;10.14;100.00;97064.06;5003712;28;20706;-55
2022/04/06 06:02:24;;;;;;;80.70;9.13;;;;;;;10.21;100.00;97071.44;5002276;28;20030;-54
2022/04/06 06:04:51;;;;;;;93.35;9.73;;;;;;;10.03;100.00;97064.63;5007331;28;20186;-56
2022/04/06 06:07:19;;;;;;;85.13;9.43;;;;;;;10.30;100.00;97064.91;5005089;28;20042;-56
2022/04/06 06:09:44;;;;;;;79.63;9.30;;;;;;;10.21;100.00;97054.97;5005636;28;20041;-56
2022/04/06 06:12:10;;;;;;;72.50;8.88;;;;;;;10.75;100.00;97057.22;5005835;28;20041;-56
2022/04/06 06:14:35;;;;;;;74.70;9.35;;;;;;;10.76;100.00;97051.09;5006102;28;20025;-55
2022/04/06 06:17:00;;;;;;;80.10;8.68;;;;;;;10.95;100.00;97059.56;5007063;28;20046;-56
2022/04/06 06:19:26;;;;;;;77.70;9.25;;;;;;;10.53;100.00;97055.00;5009863;28;20022;-55
2022/04/06 06:21:51;;;;;;;75.47;8.60;;;;;;;10.65;100.00;97051.69;5002846;28;20036;-57
2022/04/06 06:24:17;;;;;;;83.80;9.48;;;;;;;10.41;100.00;97049.53;4999533;28;20053;-55
2022/04/06 06:26:42;;;;;;;78.32;9.07;;;;;;;10.56;100.00;97053.06;5005984;28;20033;-56
2022/04/06 06:29:08;;;;;;;77.57;9.32;;;;;;;10.42;100.00;97058.19;5006066;28;20034;-55
2022/04/06 06:31:33;;;;;;;77.88;9.07;;;;;;;10.31;100.00;97057.94;5003968;28;20556;-55
2022/04/06 06:33:59;;;;;;;79.03;8.40;;;;;;;10.63;100.00;97057.94;5005996;28;20629;-56
2022/04/06 06:36:25;;;;;;;84.65;9.35;;;;;;;10.43;100.00;97059.88;5002459;28;20038;-54
2022/04/06 06:38:52;;;;;;;71.15;8.70;;;;;;;10.56;100.00;97058.25;5003365;28;20692;-55
2022/04/06 06:41:18;;;;;;;82.50;9.20;;;;;;;10.74;100.00;97059.00;5003060;28;20046;-55
2022/04/06 06:43:44;;;;;;;85.15;9.52;;;;;;;11.23;100.00;97049.25;5005286;28;20533;-54
2022/04/06 06:46:11;;;;;;;77.40;8.20;;;;;;;10.98;100.00;97050.72;5005618;28;20050;-54
2022/04/06 06:48:37;;;;;;;77.75;8.05;;;;;;;11.41;100.00;97042.13;5008944;28;20152;-55
2022/04/06 06:51:02;;;;;;;75.55;8.93;;;;;;;10.72;100.00;97049.59;5005245;28;20034;-54
2022/04/06 06:53:28;;;;;;;80.22;9.20;;;;;;;11.25;100.00;97043.03;5001750;28;20072;-55
2022/04/06 06:55:53;;;;;;;88.25;9.05;;;;;;;11.14;100.00;97045.44;5004541;28;20610;-54
2022/04/06 06:58:18;;;;;;;78.65;8.98;;;;;;;10.99;100.00;97039.31;5004309;28;20060;-56
2022/04/06 07:00:44;;;;;;;84.57;9.13;;;;;;;11.23;100.00;97034.47;5001129;28;20032;-55
2022/04/06 07:03:09;;;;;;;76.05;8.63;;;;;;;11.13;100.00;97034.16;5003037;28;20041;-57
2022/04/06 07:05:35;;;;;;;75.80;8.13;;;;;;;11.29;100.00;97034.09;5000247;28;20041;-56
2022/04/06 07:08:01;;;;;;;81.88;8.07;;;;;;;11.86;100.00;97038.50;5007154;28;20026;-55
2022/04/06 07:10:26;;;;;;;73.78;7.15;;;;;;;12.73;100.00;97023.47;4997917;28;20054;-55
2022/04/06 07:12:52;;;;;;;71.80;7.45;;;;;;;12.47;100.00;97023.38;5000249;28;20041;-55
2022/04/06 07:15:19;;;;;;;84.68;7.95;;;;;;;12.45;100.00;97017.41;5001530;28;20030;-54
2022/04/06 07:17:44;;;;;;;68.22;7.53;;;;;;;11.74;100.00;97011.38;4998578;28;20092;-55
2022/04/06 07:20:10;;;;;;;81.80;8.25;;;;;;;12.32;100.00;97019.97;5001515;28;20041;-55
2022/04/06 07:22:36;;;;;;;90.90;9.10;;;;;;;12.07;100.00;97015.44;5003063;28;20341;-55
2022/04/06 07:25:02;;;;;;;87.88;8.52;;;;;;;12.43;100.00;97013.22;5004333;28;20149;-55
2022/04/06 07:27:34;;;;;;;73.20;6.30;;;;;;;13.27;100.00;97012.91;5005188;28;20153;-55
2022/04/06 07:29:59;;;;;;;;;;;;;;;13.06;100.00;97007.31;5005048;28;20108;-56
2022/04/06 07:32:25;;;;;;;80.27;7.60;;;;;;;13.06;100.00;97009.09;5002702;28;20058;-56
2022/04/06 07:34:50;;;;;;;89.75;8.38;;;;;;;12.73;100.00;96994.69;5003145;28;20360;-54
2022/04/06 07:37:15;;;;;;;91.57;8.13;;;;;;;12.63;100.00;97004.09;5003150;28;20038;-54
2022/04/06 07:39:41;;;;;;;65.78;7.00;;;;;;;12.15;100.00;97000.13;5004138;28;20025;-56
2022/04/06 07:42:06;;;;;;;80.65;7.13;;;;;;;13.29;100.00;97000.53;5003383;28;20121;-55
2022/04/06 07:44:32;;;;;;;72.97;7.38;;;;;;;12.53;100.00;96996.84;5002161;28;20109;-54
2022/04/06 07:46:57;;;;;;;61.42;7.00;;;;;;;12.46;100.00;97008.63;5001878;28;20046;-56
2022/04/06 07:49:22;;;;;;;88.45;8.13;;;;;;;12.71;100.00;97004.41;5007707;28;20029;-55
2022/04/06 07:51:48;;;;;;;84.80;7.45;;;;;;;12.95;100.00;97006.34;5006734;28;20182;-55
2022/04/06 07:54:13;;;;;;;75.70;7.10;;;;;;;12.66;100.00;97009.09;5004227;28;20986;-56
2022/04/06 07:56:39;;;;;;;78.15;7.93;;;;;;;12.48;100.00;97004.16;5002211;28;20065;-55
2022/04/06 07:59:05;;;;;;;72.57;7.78;;;;;;;12.26;100.00;97003.81;4996112;28;20475;-57
2022/04/06 08:01:30;;;;;;;77.28;7.50;;;;;;;12.47;100.00;97002.44;4998529;28;20305;-55
2022/04/06 08:03:56;;;;;;;79.70;7.82;;;;;;;12.75;100.00;96999.81;5004002;28;20018;-55
2022/04/06 08:06:24;;;;;;;75.93;8.15;;;;;;;12.36;100.00;96994.47;5002786;28;20037;-54
2022/04/06 08:08:52;;;;;;;79.00;7.55;;;;;;;13.65;100.00;96988.47;5002909;28;20030;-54
2022/04/06 08:11:19;;;;;;;78.57;7.55;;;;;;;12.41;100.00;96992.41;5003659;28;20038;-55
2022/04/06 08:13:45;;;;;;;91.03;8.13;;;;;;;12.79;100.00;96996.91;5004966;28;20192;-56
2022/04/06 08:16:10;;;;;;;74.90;6.70;;;;;;;13.68;100.00;96992.69;5001083;28;20037;-55
2022/04/06 08:18:36;;;;;;;80.68;6.90;;;;;;;12.88;100.00;97001.53;5003299;28;20474;-57
2022/04/06 08:21:04;;;;;;;86.72;7.55;;;;;;;13.12;100.00;96992.97;5001882;28;20076;-55
2022/04/06 08:23:30;;;;;;;79.43;6.68;;;;;;;13.35;100.00;96988.00;5004397;28;20033;-55
2022/04/06 08:25:55;;;;;;;73.35;6.95;;;;;;;13.09;100.00;96980.09;5002484;28;20029;-55
2022/04/06 08:28:20;;;;;;;78.70;6.88;;;;;;;12.71;100.00;96980.88;5001277;28;20025;-56
2022/04/06 08:30:47;;;;;;;66.57;7.05;;;;;;;12.94;100.00;96984.59;5002137;28;20036;-57
2022/04/06 08:33:13;;;;;;;81.32;6.55;;;;;;;13.13;100.00;96999.06;5003655;28;20034;-56
2022/04/06 08:35:40;;;;;;;81.72;7.22;;;;;;;13.39;100.00;96992.09;5000608;28;20061;-56
2022/04/06 08:38:06;;;;;;;75.95;7.68;;;;;;;12.62;100.00;96984.91;5006095;28;20108;-54
2022/04/06 08:40:32;;;;;;;73.32;7.38;;;;;;;13.01;100.00;96990.22;5001562;28;20342;-54
2022/04/06 08:42:58;;;;;;;86.55;7.43;;;;;;;13.85;100.00;96974.00;5005275;28;20026;-55
2022/04/06 08:45:24;;;;;;;73.00;7.28;;;;;;;13.48;100.00;96979.19;5001532;28;20164;-56
2022/04/06 08:47:51;;;;;;;71.95;6.68;;;;;;;14.75;100.00;96976.28;5003113;28;20109;-55
2022/04/06 08:50:18;;;;;;;91.43;7.82;;;;;;;13.80;100.00;96970.03;5002656;28;20099;-55
2022/04/06 08:52:45;;;;;;;71.10;7.43;;;;;;;13.23;100.00;96979.16;5008076;28;20083;-55
2022/04/06 08:55:12;;;;;;;80.55;7.72;;;;;;;13.92;100.00;96982.28;5005244;28;20034;-54
2022/04/06 08:57:38;;;;;;;77.00;6.63;;;;;;;13.84;100.00;96979.34;5004448;28;20021;-56
2022/04/06 09:00:05;;;;;;;75.45;6.85;;;;;;;13.81;100.00;96979.56;5003752;28;20030;-56
2022/04/06 09:02:30;;;;;;;77.75;7.55;;;;;;;13.35;100.00;96985.38;5004577;28;20046;-55
2022/04/06 09:04:56;;;;;;;95.75;8.55;;;;;;;13.29;100.00;96982.19;5007245;28;20285;-55
2022/04/06 09:07:24;;;;;;;85.78;7.53;;;;;;;13.51;100.00;96980.78;5006988;28;20365;-54
2022/04/06 09:09:51;;;;;;;73.85;7.30;;;;;;;12.85;100.00;96987.81;5003464;28;20125;-54
2022/04/06 09:12:22;;;;;;;79.68;7.57;;;;;;;12.90;100.00;96994.44;5001596;28;20034;-55
2022/04/06 09:14:48;;;;;;;91.20;7.55;;;;;;;13.87;100.00;96993.06;5003616;28;20097;-55
2022/04/06 09:17:19;;;;;;;77.97;7.15;;;;;;;13.35;100.00;96982.78;5003474;28;20038;-55
2022/04/06 09:19:52;;;;;;;82.25;7.72;;;;;;;13.87;100.00;96977.34;5002443;28;20183;-53
2022/04/06 09:22:17;;;;;;;59.28;6.07;;;;;;;13.89;100.00;96974.63;4998664;28;20907;-55
2022/04/06 09:24:42;;;;;;;85.97;7.25;;;;;;;14.23;100.00;96975.66;5002711;28;20504;-55
2022/04/06 09:27:08;;;;;;;70.63;6.57;;;;;;;13.62;100.00;96983.47;5008005;28;20889;-56
2022/04/06 09:29:35;;;;;;;75.85;6.95;;;;;;;13.85;100.00;96975.78;5010604;28;20554;-56
2022/04/06 09:32:10;;;;;;;81.90;7.60;;;;;;;13.42;100.00;96970.94;5001291;28;20482;-55
2022/04/06 09:34:37;;;;;;;77.03;6.68;;;;;;;14.74;100.00;96979.03;5003160;28;20088;-55
2022/04/06 09:37:22;;;;;;;69.03;6.78;;;;;;;13.62;100.00;96978.25;5000040;28;20026;-55
2022/04/06 09:39:47;;;;;;;74.03;7.28;;;;;;;13.63;100.00;96972.03;5001439;28;20022;-54
2022/04/06 09:42:31;;;;;;;68.97;6.20;;;;;;;14.62;100.00;96968.47;5007152;28;20038;-55
2022/04/06 09:47:53;;;;;;;75.70;7.13;;;;;;;12.92;100.00;96979.44;5002805;28;20094;-55
2022/04/06 09:50:23;;;;;;;90.65;7.95;;;;;;;13.16;100.00;96973.50;5003325;28;20800;-55
2022/04/06 09:52:56;;;;;;;80.72;6.38;;;;;;;13.45;100.00;96978.56;5004239;28;20017;-54
2022/04/06 09:55:22;;;;;;;75.30;7.30;;;;;;;13.11;100.00;96972.97;5004593;28;20045;-55
2022/04/06 09:57:52;;;;;;;83.35;7.68;;;;;;;13.26;100.00;96971.94;5003265;28;20667;-53
2022/04/06 10:00:25;;;;;;;72.55;6.43;;;;;;;14.23;100.00;96959.09;5007923;28;20030;-55
2022/04/06 10:03:04;;;;;;;80.10;6.70;;;;;;;14.02;100.00;96961.47;5008134;28;20057;-56
2022/04/06 10:05:33;;;;;;;70.82;6.10;;;;;;;14.20;100.00;96965.38;5004766;28;20133;-54
2022/04/06 10:08:04;;;;;;;77.47;7.20;;;;;;;13.47;100.00;96960.94;5006491;28;20022;-54
2022/04/06 10:10:31;;;;;;;67.68;5.60;;;;;;;14.81;100.00;96954.00;5001277;28;20042;-54
2022/04/06 10:12:56;;;;;;;92.95;7.63;;;;;;;14.27;100.00;96947.44;5004265;28;20073;-55
2022/04/06 10:15:24;;;;;;;84.22;7.40;;;;;;;14.01;100.00;96949.31;5004370;28;20042;-54
2022/04/06 10:17:49;;;;;;;65.38;6.22;;;;;;;13.83;100.00;96933.13;5006236;28;20034;-54
2022/04/06 10:20:36;;;;;;;87.47;7.20;;;;;;;14.23;100.00;96938.94;5004763;28;20037;-55
2022/04/06 10:23:13;;;;;;;70.53;5.72;;;;;;;14.20;100.00;96946.22;5006851;28;20153;-54
2022/04/06 10:25:57;;;;;;;69.25;6.63;;;;;;;14.30;100.00;96926.25;5001565;28;20048;-54
2022/04/06 10:28:22;;;;;;;76.18;6.53;;;;;;;15.12;100.00;96926.25;5002481;28;20045;-56
2022/04/06 10:31:12;;;;;;;72.32;6.50;;;;;;;13.92;100.00;96924.59;5002952;28;20125;-55
2022/04/06 10:33:39;;;;;;;71.05;7.05;;;;;;;13.62;100.00;96917.97;5003045;28;20026;-54
2022/04/06 10:36:28;;;;;;;73.95;6.60;;;;;;;15.01;100.00;96913.94;5004068;28;20038;-55
2022/04/06 10:39:10;;;;;;;62.25;5.85;;;;;;;14.76;100.00;96920.22;5006145;28;20077;-55
2022/04/06 10:41:41;;;;;;;72.68;5.68;;;;;;;15.98;100.00;96913.47;5002175;28;20071;-54
2022/04/06 10:44:36;;;;;;;68.45;5.68;;;;;;;16.15;100.00;96906.84;5006979;28;20559;-55
2022/04/06 10:47:07;;;;;;;75.13;6.50;;;;;;;17.79;100.00;96896.59;5002843;28;20049;-54
2022/04/06 10:49:32;;;;;;;70.95;6.63;;;;;;;18.22;98.83;96884.94;5005086;28;20029;-56
2022/04/06 10:51:59;;;;;;;55.72;5.43;;;;;;;17.91;100.00;96879.75;5001427;28;20404;-54
2022/04/06 10:54:27;;;;;;;69.40;5.70;;;;;;;18.23;100.00;96890.06;5005649;28;20060;-54
2022/04/06 10:56:54;;;;;;;68.68;6.57;;;;;;;17.77;91.38;96872.19;5004045;28;20045;-56
2022/04/06 10:59:24;;;;;;;67.40;6.13;;;;;;;17.28;100.00;96877.31;5002383;28;20745;-54
2022/04/06 11:02:16;;;;;;;65.95;6.00;;;;;;;19.43;100.00;96876.38;5004623;28;20849;-54
2022/04/06 11:04:41;;;;;;;80.25;6.80;;;;;;;20.13;82.53;96870.59;5006188;28;20022;-54
2022/04/06 11:07:08;;;;;;;54.35;4.85;;;;;;;19.57;100.00;96868.94;5003689;28;20562;-54
2022/04/06 11:12:29;;;;;;;58.05;5.15;;;;;;;18.42;100.00;96867.28;5003317;28;20037;-55
2022/04/06 11:15:01;;;;;;;84.47;6.82;;;;;;;18.45;99.46;96861.72;5004349;28;20025;-57
2022/04/06 11:17:34;;;;;;;72.95;6.50;;;;;;;18.84;77.07;96867.00;5005997;28;20052;-54
2022/04/06 11:20:01;;;;;;;63.03;5.47;;;;;;;19.25;90.11;96859.63;5005953;28;20026;-55
2022/04/06 11:22:27;;;;;;;64.25;6.00;;;;;;;18.49;86.45;96860.47;5004643;28;20038;-55
2022/04/06 11:24:54;;;;;;;88.22;7.40;;;;;;;20.16;77.42;96853.56;5004873;28;20038;-54
2022/04/06 11:27:33;;;;;;;67.97;7.10;;;;;;;18.51;72.78;96845.31;5003132;28;20041;-55